Time;durP1;ratioP1;P1;durP2;ratioP2;P2;SDS_P1;SDS_P2;PMS_P1;PMS_P2;Temp;Humidity;BMP_temperature;BMP_pressure;BME280_temperature;BME280_humidity;BME280_pressure;Samples;Min_cycle;Max_cycle;Signal;HPM_P1;HPM_P2
2021/03/18 00:00:46;;;;;;;0.90;0.75;;;11.00;73.50;;;;;;5075385;28;20044;-42
2021/03/18 00:03:24;;;;;;;1.02;0.70;;;10.90;73.40;;;;;;5076352;28;20044;-43
2021/03/18 00:05:50;;;;;;;0.85;0.82;;;10.90;73.40;;;;;;5075523;28;20056;-42
2021/03/18 00:08:16;;;;;;;0.85;0.70;;;10.90;73.40;;;;;;5075525;28;20048;-46
2021/03/18 00:10:44;;;;;;;1.33;0.90;;;10.90;73.40;;;;;;5076200;28;20053;-43
2021/03/18 00:13:10;;;;;;;1.73;0.85;;;10.90;73.50;;;;;;5076007;28;20131;-39
2021/03/18 00:15:36;;;;;;;1.15;0.80;;;10.90;73.40;;;;;;5061594;28;20049;-43
2021/03/18 00:18:05;;;;;;;0.77;0.77;;;11.00;73.50;;;;;;5056189;28;20072;-46
2021/03/18 00:20:31;;;;;;;1.67;1.10;;;10.90;73.50;;;;;;5056163;28;20052;-42
2021/03/18 00:22:57;;;;;;;0.90;0.80;;;10.90;73.50;;;;;;5055282;28;20045;-55
2021/03/18 00:25:22;;;;;;;2.03;1.08;;;10.90;73.50;;;;;;5055804;28;20405;-50
2021/03/18 00:27:49;;;;;;;1.05;0.88;;;11.00;73.60;;;;;;5056078;28;20052;-50
2021/03/18 00:30:16;;;;;;;0.82;0.73;;;10.90;73.60;;;;;;5055021;28;20052;-54
2021/03/18 00:32:43;;;;;;;1.05;0.98;;;10.90;73.50;;;;;;5055228;28;20056;-43
2021/03/18 00:35:10;;;;;;;2.05;0.98;;;10.90;73.60;;;;;;5055430;28;20049;-47
2021/03/18 00:37:38;;;;;;;1.92;0.80;;;10.90;73.60;;;;;;5055235;28;20052;-50
2021/03/18 00:40:11;;;;;;;1.27;0.88;;;10.90;73.60;;;;;;5055733;28;20048;-55
2021/03/18 00:43:06;;;;;;;0.70;0.70;;;10.90;73.60;;;;;;5055470;28;20497;-53
2021/03/18 00:45:34;;;;;;;1.27;0.70;;;10.90;73.60;;;;;;5053969;28;20052;-54
2021/03/18 00:48:01;;;;;;;1.40;0.80;;;10.90;73.60;;;;;;5055309;28;20132;-53
2021/03/18 00:50:43;;;;;;;0.98;0.98;;;10.90;73.60;;;;;;5055621;28;20056;-52
2021/03/18 00:53:11;;;;;;;1.40;0.80;;;10.90;73.60;;;;;;5054768;28;20099;-45
2021/03/18 00:55:37;;;;;;;1.23;0.65;;;10.90;73.60;;;;;;5054093;28;20055;-52
2021/03/18 00:58:03;;;;;;;0.88;0.88;;;10.90;73.60;;;;;;5055093;28;20045;-47
2021/03/18 01:00:41;;;;;;;1.95;0.98;;;10.90;73.60;;;;;;5054614;28;20448;-52
2021/03/18 01:03:08;;;;;;;2.13;0.80;;;10.90;73.70;;;;;;5055112;28;20489;-54
2021/03/18 01:05:47;;;;;;;0.93;0.75;;;10.90;73.60;;;;;;5054769;28;20129;-54
2021/03/18 01:08:15;;;;;;;2.40;0.85;;;11.00;73.70;;;;;;5054945;28;20494;-56
2021/03/18 01:10:50;;;;;;;1.25;0.63;;;10.90;73.70;;;;;;5055202;28;20099;-52
2021/03/18 01:13:21;;;;;;;1.10;0.90;;;10.90;73.60;;;;;;5054530;28;20056;-50
2021/03/18 01:15:53;;;;;;;1.08;0.75;;;10.80;73.60;;;;;;5068993;28;20068;-48
2021/03/18 01:18:23;;;;;;;0.75;0.75;;;10.80;73.60;;;;;;5074836;28;20049;-57
2021/03/18 01:20:49;;;;;;;0.80;0.80;;;10.80;73.60;;;;;;5074430;28;20072;-48
2021/03/18 01:23:15;;;;;;;1.08;0.57;;;10.90;73.60;;;;;;5074766;28;20542;-55
2021/03/18 01:25:41;;;;;;;0.65;0.60;;;10.90;73.60;;;;;;5074681;28;20049;-54
2021/03/18 01:28:10;;;;;;;1.35;0.90;;;10.80;73.60;;;;;;5074191;28;20206;-56
2021/03/18 01:30:39;;;;;;;2.25;1.13;;;10.80;73.60;;;;;;5074390;28;20048;-53
2021/03/18 01:33:07;;;;;;;1.10;0.90;;;10.90;73.70;;;;;;5065706;28;20052;-51
2021/03/18 01:35:33;;;;;;;0.80;0.80;;;10.80;73.60;;;;;;5053724;28;20073;-55
2021/03/18 01:37:59;;;;;;;1.10;0.90;;;10.80;73.70;;;;;;5054560;28;20056;-46
2021/03/18 01:40:29;;;;;;;0.90;0.80;;;10.80;73.70;;;;;;5054236;28;20493;-41
2021/03/18 01:42:55;;;;;;;0.95;0.95;;;10.80;73.70;;;;;;5053383;28;20044;-53
2021/03/18 01:45:23;;;;;;;1.38;0.90;;;10.90;73.70;;;;;;5054382;28;20049;-56
2021/03/18 01:47:51;;;;;;;0.77;0.75;;;10.80;73.70;;;;;;5054147;28;20095;-53
2021/03/18 01:50:19;;;;;;;1.17;1.00;;;10.80;73.70;;;;;;5053877;28;20098;-45
2021/03/18 01:52:45;;;;;;;1.58;0.90;;;10.80;73.70;;;;;;5054064;28;20056;-44
2021/03/18 01:55:27;;;;;;;1.60;0.90;;;10.90;73.80;;;;;;5054378;28;20044;-52
2021/03/18 01:57:52;;;;;;;0.93;0.80;;;10.80;73.80;;;;;;5053502;28;20464;-51
2021/03/18 02:00:19;;;;;;;0.60;0.60;;;10.80;73.70;;;;;;5053873;28;20041;-50
2021/03/18 02:02:45;;;;;;;1.40;0.82;;;10.80;73.80;;;;;;5053820;28;20497;-47
2021/03/18 02:05:11;;;;;;;1.73;0.93;;;10.80;73.80;;;;;;5053645;28;20059;-52
2021/03/18 02:07:37;;;;;;;1.17;0.60;;;10.80;73.80;;;;;;5053250;28;20049;-45
2021/03/18 02:10:04;;;;;;;1.17;0.80;;;10.80;73.80;;;;;;5054149;28;20060;-47
2021/03/18 02:12:30;;;;;;;2.33;0.85;;;10.80;73.80;;;;;;5053109;28;20106;-47
2021/03/18 02:14:56;;;;;;;0.68;0.60;;;10.80;73.80;;;;;;5061531;28;20045;-51
2021/03/18 02:17:33;;;;;;;0.82;0.80;;;10.80;73.80;;;;;;5073508;28;20049;-52
2021/03/18 02:20:07;;;;;;;1.08;0.70;;;10.80;73.80;;;;;;5073215;28;20040;-52
2021/03/18 02:23:08;;;;;;;1.00;0.73;;;10.80;73.80;;;;;;5073722;28;20511;-46
2021/03/18 02:26:01;;;;;;;0.77;0.77;;;10.80;73.80;;;;;;4991899;28;20133;-46
2021/03/18 02:28:49;;;;;;;0.93;0.80;;;10.80;73.80;;;;;;4991180;28;20507;-42
2021/03/18 02:31:41;;;;;;;0.70;0.70;;;10.80;73.80;;;;;;4991919;28;20058;-50
2021/03/18 02:34:25;;;;;;;1.48;0.82;;;10.80;73.80;;;;;;4990906;28;20054;-42
2021/03/18 02:36:59;;;;;;;1.77;1.00;;;10.70;73.70;;;;;;4991340;28;20140;-42
2021/03/18 02:39:32;;;;;;;1.52;1.08;;;10.80;73.80;;;;;;4991633;28;20070;-41
2021/03/18 02:42:01;;;;;;;0.88;0.70;;;10.70;73.80;;;;;;4991487;28;20632;-45
2021/03/18 02:44:29;;;;;;;1.48;1.02;;;10.70;73.80;;;;;;4991695;28;20133;-43
2021/03/18 02:47:08;;;;;;;1.48;0.75;;;10.80;73.90;;;;;;4991753;28;20054;-43
2021/03/18 02:49:44;;;;;;;1.13;0.82;;;10.80;73.90;;;;;;4990602;28;20096;-39
2021/03/18 02:52:15;;;;;;;1.00;0.80;;;10.80;74.50;;;;;;4991523;28;20093;-41
2021/03/18 02:54:43;;;;;;;1.85;0.80;;;10.80;73.90;;;;;;4975587;28;20054;-39
2021/03/18 02:57:11;;;;;;;1.20;0.85;;;10.70;73.80;;;;;;4991098;28;20169;-40
2021/03/18 02:59:39;;;;;;;1.85;1.02;;;10.70;73.80;;;;;;4991350;28;20046;-39
2021/03/18 03:02:10;;;;;;;1.77;0.80;;;10.80;73.90;;;;;;5022232;28;20409;-43
2021/03/18 03:04:39;;;;;;;1.27;0.93;;;10.70;73.80;;;;;;5072157;28;20055;-39
2021/03/18 03:07:07;;;;;;;2.20;0.80;;;10.70;73.80;;;;;;5072706;28;20090;-43
2021/03/18 03:09:34;;;;;;;0.93;0.80;;;10.70;73.80;;;;;;5072821;28;20128;-50
2021/03/18 03:12:01;;;;;;;1.65;0.80;;;10.70;73.90;;;;;;5071973;28;20070;-47
2021/03/18 03:14:28;;;;;;;0.85;0.65;;;10.70;73.90;;;;;;5068685;28;20037;-51
2021/03/18 03:16:54;;;;;;;0.73;0.73;;;10.70;73.90;;;;;;5052766;28;20422;-46
2021/03/18 03:19:20;;;;;;;1.42;1.00;;;10.70;73.90;;;;;;5051003;28;20053;-46
2021/03/18 03:21:48;;;;;;;2.80;1.02;;;10.70;73.90;;;;;;5052613;28;20049;-46
2021/03/18 03:24:15;;;;;;;0.80;0.80;;;10.70;73.90;;;;;;5052698;28;20094;-41
2021/03/18 03:26:41;;;;;;;1.40;0.80;;;10.70;73.90;;;;;;5051782;28;20060;-44
2021/03/18 03:29:08;;;;;;;0.80;0.80;;;10.70;73.90;;;;;;5052448;28;20045;-41
2021/03/18 03:31:34;;;;;;;2.58;0.90;;;10.70;73.90;;;;;;5034696;28;20052;-44
2021/03/18 03:34:07;;;;;;;0.82;0.70;;;10.70;73.90;;;;;;5051842;28;20064;-53
2021/03/18 03:36:33;;;;;;;0.70;0.70;;;10.70;73.90;;;;;;5052143;28;20134;-42
2021/03/18 03:39:00;;;;;;;0.82;0.80;;;10.70;73.90;;;;;;5052248;28;20506;-49
2021/03/18 03:41:26;;;;;;;1.00;0.70;;;10.60;73.90;;;;;;5051965;28;20052;-50
2021/03/18 03:43:52;;;;;;;0.75;0.75;;;10.70;73.90;;;;;;5052378;28;20499;-55
2021/03/18 03:46:18;;;;;;;0.82;0.75;;;10.70;73.90;;;;;;5052155;28;20048;-48
2021/03/18 03:48:44;;;;;;;1.13;0.77;;;10.70;73.90;;;;;;5051452;28;20049;-45
2021/03/18 03:51:09;;;;;;;0.80;0.80;;;10.70;73.90;;;;;;5052129;28;20045;-49
2021/03/18 03:53:46;;;;;;;0.93;0.73;;;10.70;73.90;;;;;;5052257;28;20057;-57
2021/03/18 03:56:24;;;;;;;0.70;0.70;;;10.70;73.90;;;;;;5051836;28;20053;-56
2021/03/18 03:58:52;;;;;;;1.70;1.00;;;10.70;73.90;;;;;;5051959;28;20056;-53
2021/03/18 04:01:43;;;;;;;0.70;0.70;;;10.70;73.90;;;;;;5052554;28;20053;-55
2021/03/18 04:04:21;;;;;;;0.70;0.60;;;10.70;73.90;;;;;;4970454;28;20591;-49
2021/03/18 04:06:51;;;;;;;1.65;1.00;;;10.70;73.90;;;;;;4970890;28;20170;-51
2021/03/18 04:09:20;;;;;;;0.60;0.60;;;10.70;73.90;;;;;;4971133;28;20051;-52
2021/03/18 04:11:48;;;;;;;1.35;1.05;;;10.70;73.90;;;;;;4970639;28;20078;-45
2021/03/18 04:14:16;;;;;;;0.75;0.75;;;10.70;74.00;;;;;;4973098;28;20050;-49
2021/03/18 04:16:44;;;;;;;1.13;0.93;;;10.70;74.00;;;;;;4990558;28;20050;-52
2021/03/18 04:19:15;;;;;;;0.95;0.70;;;10.70;74.00;;;;;;4989646;28;20046;-50
2021/03/18 04:21:43;;;;;;;0.88;0.88;;;10.70;74.00;;;;;;4990116;28;20448;-49
2021/03/18 04:24:12;;;;;;;1.27;1.02;;;10.70;74.00;;;;;;4991233;28;20042;-54
2021/03/18 04:26:40;;;;;;;1.20;1.10;;;10.70;74.00;;;;;;4989613;28;20149;-56
2021/03/18 04:29:07;;;;;;;2.03;0.82;;;10.70;74.00;;;;;;4990486;28;20061;-44
2021/03/18 04:31:35;;;;;;;2.10;0.82;;;10.70;74.00;;;;;;4994046;28;20078;-54
2021/03/18 04:34:02;;;;;;;1.85;0.95;;;10.70;74.00;;;;;;4993173;28;20051;-54
2021/03/18 04:36:29;;;;;;;1.05;0.90;;;10.60;73.90;;;;;;4993729;28;20551;-46
2021/03/18 04:38:57;;;;;;;1.13;0.90;;;10.70;74.00;;;;;;4993653;28;20141;-50
2021/03/18 04:41:24;;;;;;;0.80;0.70;;;10.70;74.00;;;;;;5042919;28;20045;-50
2021/03/18 04:43:51;;;;;;;1.10;0.80;;;10.70;74.00;;;;;;5075400;28;20048;-45
2021/03/18 04:46:18;;;;;;;0.68;0.68;;;10.60;74.00;;;;;;5075445;28;20071;-50
2021/03/18 04:48:45;;;;;;;1.38;0.90;;;10.70;74.00;;;;;;5074727;28;20048;-53
2021/03/18 04:51:11;;;;;;;1.55;1.00;;;10.70;74.70;;;;;;5074904;28;20532;-47
2021/03/18 04:53:38;;;;;;;0.70;0.68;;;10.70;74.00;;;;;;5072020;28;20044;-42
2021/03/18 04:56:06;;;;;;;0.82;0.57;;;10.60;74.00;;;;;;5074543;28;20041;-56
2021/03/18 04:58:34;;;;;;;0.90;0.70;;;10.60;74.00;;;;;;5075485;28;20063;-48
2021/03/18 05:01:01;;;;;;;0.70;0.70;;;10.60;74.00;;;;;;5075002;28;20123;-50
2021/03/18 05:03:27;;;;;;;0.70;0.70;;;10.70;74.00;;;;;;5074346;28;20049;-54
2021/03/18 05:05:57;;;;;;;1.30;0.90;;;10.70;74.00;;;;;;5075261;28;20059;-51
2021/03/18 05:08:23;;;;;;;1.35;0.90;;;10.60;74.00;;;;;;5074768;28;20064;-50
2021/03/18 05:10:50;;;;;;;0.70;0.70;;;10.70;74.00;;;;;;5073930;28;20067;-52
2021/03/18 05:13:17;;;;;;;1.65;1.15;;;10.70;74.10;;;;;;5074609;28;20052;-52
2021/03/18 05:15:44;;;;;;;0.82;0.68;;;10.60;74.10;;;;;;5060874;28;20048;-53
2021/03/18 05:18:12;;;;;;;1.25;0.90;;;10.60;74.00;;;;;;5053721;28;20060;-49
2021/03/18 05:20:39;;;;;;;0.82;0.80;;;10.60;74.00;;;;;;5054872;28;20049;-56
2021/03/18 05:23:07;;;;;;;1.05;0.70;;;10.60;74.00;;;;;;5054528;28;20053;-47
2021/03/18 05:25:34;;;;;;;1.23;0.88;;;10.60;74.00;;;;;;5054280;28;20045;-49
2021/03/18 05:28:00;;;;;;;2.17;1.20;;;10.70;74.10;;;;;;5054539;28;20413;-44
2021/03/18 05:30:27;;;;;;;2.40;1.23;;;10.60;74.00;;;;;;5054644;28;20048;-47
2021/03/18 05:33:03;;;;;;;0.90;0.80;;;10.60;74.00;;;;;;5053793;28;20064;-49
2021/03/18 05:35:30;;;;;;;0.60;0.60;;;10.60;74.10;;;;;;5054817;28;20404;-50
2021/03/18 05:37:57;;;;;;;1.67;1.02;;;10.60;74.10;;;;;;5054239;28;20060;-44
2021/03/18 05:40:23;;;;;;;2.13;1.00;;;10.70;74.10;;;;;;5053254;28;20405;-38
2021/03/18 05:42:49;;;;;;;1.00;0.90;;;10.60;74.00;;;;;;5053559;28;20056;-50
2021/03/18 05:45:16;;;;;;;1.38;0.70;;;10.60;74.00;;;;;;5054183;28;20059;-40
2021/03/18 05:47:43;;;;;;;0.70;0.70;;;10.60;74.00;;;;;;5052853;28;20091;-49
2021/03/18 05:50:13;;;;;;;0.80;0.80;;;10.60;74.00;;;;;;5053280;28;20052;-47
2021/03/18 05:52:39;;;;;;;0.80;0.80;;;10.60;74.10;;;;;;5053569;28;20051;-42
2021/03/18 05:55:07;;;;;;;0.80;0.80;;;10.60;74.10;;;;;;5052582;28;20048;-56
2021/03/18 05:57:34;;;;;;;1.95;1.00;;;10.60;74.00;;;;;;5053382;28;20140;-55
2021/03/18 06:00:12;;;;;;;1.63;0.90;;;10.60;74.00;;;;;;5053449;28;20067;-51
2021/03/18 06:02:39;;;;;;;0.68;0.68;;;10.60;74.10;;;;;;5053384;28;20049;-43
2021/03/18 06:05:08;;;;;;;1.08;0.98;;;10.60;74.00;;;;;;5054036;28;20041;-51
2021/03/18 06:07:43;;;;;;;1.73;1.00;;;10.60;74.00;;;;;;5054108;28;20500;-51
2021/03/18 06:10:12;;;;;;;2.40;1.30;;;10.60;74.10;;;;;;5052906;28;20106;-50
2021/03/18 06:12:40;;;;;;;1.00;0.90;;;10.60;74.10;;;;;;5053760;28;20053;-52
2021/03/18 06:15:07;;;;;;;1.40;0.90;;;10.60;74.10;;;;;;5062807;28;20052;-54
2021/03/18 06:17:37;;;;;;;0.63;0.63;;;10.60;74.10;;;;;;5072692;28;20153;-52
2021/03/18 06:20:11;;;;;;;0.85;0.80;;;10.60;74.10;;;;;;5074078;28;20119;-49
2021/03/18 06:22:42;;;;;;;1.35;0.80;;;10.60;74.00;;;;;;5073840;28;20045;-42
2021/03/18 06:25:22;;;;;;;1.55;1.00;;;10.60;74.10;;;;;;5071042;28;20052;-55
2021/03/18 06:27:48;;;;;;;0.77;0.77;;;10.60;74.10;;;;;;5053895;28;20049;-53
2021/03/18 06:30:15;;;;;;;0.52;0.52;;;10.60;74.10;;;;;;5061477;28;20485;-56
2021/03/18 06:32:40;;;;;;;0.70;0.70;;;10.60;74.10;;;;;;5054351;28;20520;-50
2021/03/18 06:35:09;;;;;;;1.10;0.98;;;10.60;74.10;;;;;;5073836;28;20048;-43
2021/03/18 06:37:50;;;;;;;1.13;0.77;;;10.60;74.00;;;;;;5073354;28;20048;-43
2021/03/18 06:40:24;;;;;;;1.45;1.10;;;10.60;74.10;;;;;;5072465;28;20539;-38
2021/03/18 06:42:58;;;;;;;0.95;0.77;;;10.60;74.10;;;;;;5061552;28;20098;-44
2021/03/18 06:45:35;;;;;;;1.02;0.85;;;10.60;74.10;;;;;;5053604;28;20072;-42
2021/03/18 06:48:07;;;;;;;0.60;0.60;;;10.60;74.10;;;;;;5053109;28;20549;-51
2021/03/18 06:50:33;;;;;;;1.00;0.90;;;10.60;74.10;;;;;;5053383;28;20437;-46
2021/03/18 06:52:59;;;;;;;0.60;0.60;;;10.60;74.10;;;;;;5052475;28;20059;-45
2021/03/18 06:55:33;;;;;;;0.93;0.88;;;10.60;74.10;;;;;;5052426;28;20048;-43
2021/03/18 06:58:15;;;;;;;0.82;0.63;;;10.60;74.10;;;;;;5053516;28;20055;-41
2021/03/18 07:00:43;;;;;;;1.05;0.85;;;10.60;74.10;;;;;;5053019;28;20489;-42
2021/03/18 07:03:10;;;;;;;0.98;0.90;;;10.60;74.10;;;;;;5052680;28;20099;-40
2021/03/18 07:05:39;;;;;;;1.00;0.73;;;10.60;74.10;;;;;;5053246;28;20074;-47
2021/03/18 07:08:06;;;;;;;1.17;1.00;;;10.60;74.10;;;;;;5053040;28;20049;-46
2021/03/18 07:10:36;;;;;;;1.92;1.15;;;10.60;74.10;;;;;;5052277;28;20084;-47
2021/03/18 07:13:41;;;;;;;0.95;0.63;;;10.60;74.10;;;;;;5052586;28;20493;-49
2021/03/18 07:16:09;;;;;;;1.27;0.88;;;10.60;74.10;;;;;;4971356;28;20136;-55
2021/03/18 07:18:36;;;;;;;1.10;1.00;;;10.60;74.10;;;;;;4966702;28;20151;-49
2021/03/18 07:21:04;;;;;;;1.40;0.90;;;10.60;74.10;;;;;;4952531;29;20531;-49
2021/03/18 07:23:42;;;;;;;2.33;1.00;;;10.60;74.10;;;;;;4951800;29;20504;-47
2021/03/18 07:26:15;;;;;;;2.78;1.05;;;10.60;74.10;;;;;;4952161;29;20070;-49
2021/03/18 07:28:53;;;;;;;1.02;0.73;;;10.60;74.10;;;;;;4952511;29;20055;-52
2021/03/18 07:31:20;;;;;;;1.42;1.10;;;10.60;74.10;;;;;;4951769;29;20050;-55
2021/03/18 07:33:47;;;;;;;1.85;1.00;;;10.60;74.10;;;;;;4952060;29;20171;-45
2021/03/18 07:36:14;;;;;;;2.15;0.90;;;10.60;74.10;;;;;;4952477;29;20051;-52
2021/03/18 07:38:42;;;;;;;1.67;0.90;;;10.60;74.10;;;;;;4960971;28;20146;-52
2021/03/18 07:41:13;;;;;;;1.70;1.00;;;10.60;74.10;;;;;;4990577;28;20146;-50
2021/03/18 07:43:44;;;;;;;0.93;0.73;;;10.60;74.10;;;;;;4974497;28;20535;-50
2021/03/18 07:46:18;;;;;;;2.13;1.08;;;10.60;74.10;;;;;;4988404;28;20050;-42
2021/03/18 07:48:49;;;;;;;1.95;1.10;;;10.60;74.10;;;;;;4965013;28;20134;-41
2021/03/18 07:51:16;;;;;;;1.10;0.80;;;10.60;74.10;;;;;;5047398;28;20053;-51
2021/03/18 07:53:49;;;;;;;1.20;1.10;;;10.60;74.10;;;;;;5046704;28;20402;-51
2021/03/18 07:56:15;;;;;;;1.48;1.20;;;10.60;74.10;;;;;;5047416;28;20095;-47
2021/03/18 07:58:44;;;;;;;1.77;0.98;;;10.60;74.10;;;;;;5047138;28;20041;-39
2021/03/18 08:01:37;;;;;;;1.98;1.08;;;10.60;74.10;;;;;;5046406;28;20049;-50
2021/03/18 08:04:05;;;;;;;2.00;0.90;;;10.60;74.10;;;;;;5046594;28;20073;-44
2021/03/18 08:06:40;;;;;;;2.60;1.05;;;10.60;74.10;;;;;;5051357;28;20049;-45
2021/03/18 08:09:08;;;;;;;2.05;1.13;;;10.60;74.10;;;;;;5050605;28;20075;-39
2021/03/18 08:11:35;;;;;;;2.25;0.90;;;10.60;74.10;;;;;;5051303;28;20114;-44
2021/03/18 08:14:12;;;;;;;1.42;1.15;;;10.60;74.10;;;;;;5050727;28;20044;-44
2021/03/18 08:16:39;;;;;;;1.05;0.75;;;10.60;74.10;;;;;;5050191;28;20052;-48
2021/03/18 08:19:07;;;;;;;1.40;0.70;;;10.60;74.10;;;;;;5060182;28;20044;-44
2021/03/18 08:21:42;;;;;;;1.90;0.90;;;10.60;74.10;;;;;;5070870;28;20056;-51
2021/03/18 08:24:09;;;;;;;;;;;10.60;74.10;;;;;;5070379;28;20093;-48
2021/03/18 08:26:45;;;;;;;1.92;1.10;;;10.70;74.20;;;;;;5071203;28;19971;-43
2021/03/18 08:29:15;;;;;;;0.88;0.80;;;10.60;74.10;;;;;;5070103;28;20131;-38
2021/03/18 08:31:49;;;;;;;1.35;0.90;;;10.60;74.10;;;;;;5070079;28;20052;-39
2021/03/18 08:34:17;;;;;;;1.33;1.23;;;10.60;74.10;;;;;;5071010;28;20044;-46
2021/03/18 08:36:51;;;;;;;2.45;1.40;;;10.60;74.10;;;;;;5070752;28;20428;-48
2021/03/18 08:39:46;;;;;;;1.20;0.95;;;10.60;74.10;;;;;;5069927;28;20052;-41
2021/03/18 08:42:31;;;;;;;1.23;0.80;;;10.60;74.10;;;;;;5070328;28;20055;-46
2021/03/18 08:44:59;;;;;;;2.13;1.05;;;10.70;74.20;;;;;;5065246;28;20051;-41
2021/03/18 08:47:46;;;;;;;1.90;1.00;;;10.60;74.10;;;;;;5063623;28;20053;-50
2021/03/18 08:50:25;;;;;;;1.00;0.90;;;10.60;74.20;;;;;;5049968;28;20507;-52
2021/03/18 08:52:53;;;;;;;1.40;1.00;;;10.60;74.80;;;;;;5057016;28;20278;-58
2021/03/18 08:55:42;;;;;;;2.25;1.13;;;10.60;74.10;;;;;;5062161;28;20842;-44
2021/03/18 08:58:09;;;;;;;1.27;0.95;;;10.60;74.10;;;;;;5063071;28;20059;-53
2021/03/18 09:00:37;;;;;;;1.67;0.88;;;10.60;74.10;;;;;;5052411;28;20057;-50
2021/03/18 09:03:05;;;;;;;1.38;0.88;;;10.60;74.10;;;;;;5069242;28;20056;-46
2021/03/18 09:05:31;;;;;;;2.58;1.20;;;10.60;74.10;;;;;;5058425;28;20488;-57
2021/03/18 09:07:59;;;;;;;1.52;1.08;;;10.60;74.20;;;;;;5073096;28;20056;-51
2021/03/18 09:10:30;;;;;;;1.85;1.35;;;10.60;74.20;;;;;;5074585;28;20075;-47
2021/03/18 09:13:02;;;;;;;1.70;1.00;;;10.60;74.20;;;;;;5055814;28;20057;-56
2021/03/18 09:15:31;;;;;;;2.40;1.00;;;10.60;74.20;;;;;;5054674;28;20428;-57
2021/03/18 09:18:01;;;;;;;3.75;1.52;;;10.60;74.20;;;;;;5053325;28;20136;-42
2021/03/18 09:20:31;;;;;;;2.50;1.20;;;10.60;74.20;;;;;;5054430;28;20527;-47
2021/03/18 09:23:16;;;;;;;1.10;0.90;;;10.60;74.20;;;;;;5053327;28;20477;-57
2021/03/18 09:25:43;;;;;;;1.40;1.00;;;10.70;74.30;;;;;;5054059;28;20149;-52
2021/03/18 09:28:11;;;;;;;1.30;0.93;;;10.60;74.20;;;;;;5054381;28;20073;-50
2021/03/18 09:30:39;;;;;;;3.00;1.30;;;10.60;74.20;;;;;;5053197;28;20048;-43
2021/03/18 09:33:26;;;;;;;5.22;1.45;;;10.60;74.20;;;;;;5053739;28;20060;-37
2021/03/18 09:35:55;;;;;;;0.90;0.90;;;10.70;74.20;;;;;;5053741;28;20107;-52
2021/03/18 09:38:27;;;;;;;1.83;0.88;;;10.60;74.20;;;;;;5053396;28;20052;-49
2021/03/18 09:40:54;;;;;;;4.00;1.00;;;10.70;74.20;;;;;;5053630;28;20527;-45
2021/03/18 09:43:22;;;;;;;1.95;0.98;;;10.60;74.20;;;;;;5053816;28;20187;-39
2021/03/18 09:46:08;;;;;;;1.60;1.02;;;10.60;74.20;;;;;;5052591;28;20049;-45
2021/03/18 09:48:38;;;;;;;3.20;1.30;;;10.60;74.20;;;;;;5053843;28;20045;-37
2021/03/18 09:51:16;;;;;;;1.80;1.10;;;10.60;74.20;;;;;;5053661;28;20049;-37
2021/03/18 09:53:54;;;;;;;2.05;0.93;;;10.60;74.20;;;;;;5053842;28;20045;-36
2021/03/18 09:56:21;;;;;;;1.40;0.95;;;10.60;74.20;;;;;;5053640;28;20044;-49
2021/03/18 09:58:48;;;;;;;2.25;1.08;;;10.60;74.20;;;;;;5052444;28;20052;-42
2021/03/18 10:01:15;;;;;;;3.63;1.40;;;10.60;74.80;;;;;;5053590;28;20409;-47
2021/03/18 10:03:53;;;;;;;2.10;1.00;;;10.70;74.30;;;;;;5053704;28;20060;-46
2021/03/18 10:06:33;;;;;;;1.77;0.90;;;10.60;74.20;;;;;;5052708;28;20152;-43
2021/03/18 10:09:27;;;;;;;2.95;1.10;;;10.60;74.20;;;;;;5053041;28;20425;-40
2021/03/18 10:12:05;;;;;;;3.92;0.98;;;10.60;74.20;;;;;;5053201;28;20568;-51
2021/03/18 10:14:35;;;;;;;1.58;0.80;;;10.70;74.20;;;;;;5052121;28;20546;-42
2021/03/18 10:17:05;;;;;;;0.95;0.80;;;10.70;74.20;;;;;;5052874;28;20053;-56
2021/03/18 10:19:33;;;;;;;2.80;1.30;;;10.70;74.20;;;;;;5052219;28;20478;-48
2021/03/18 10:22:04;;;;;;;2.88;1.33;;;10.60;74.20;;;;;;5057967;28;20072;-48
2021/03/18 10:24:30;;;;;;;2.90;1.20;;;10.70;74.20;;;;;;5052691;28;20600;-46
2021/03/18 10:27:09;;;;;;;1.52;1.25;;;10.70;74.20;;;;;;5052876;28;20069;-49
2021/03/18 10:29:36;;;;;;;0.77;0.60;;;10.70;74.20;;;;;;5052413;28;20049;-51
2021/03/18 10:32:13;;;;;;;2.63;1.13;;;10.70;74.20;;;;;;5053276;28;20048;-41
2021/03/18 10:34:51;;;;;;;3.60;1.13;;;10.70;74.10;;;;;;5053362;28;20060;-48
2021/03/18 10:37:31;;;;;;;1.42;0.80;;;10.70;74.20;;;;;;5052871;28;20053;-37
2021/03/18 10:40:11;;;;;;;1.08;0.98;;;10.70;74.10;;;;;;5053450;28;20052;-38
2021/03/18 10:42:38;;;;;;;1.58;1.15;;;10.70;74.10;;;;;;5053339;28;20045;-37
2021/03/18 10:45:22;;;;;;;1.52;0.90;;;10.70;74.10;;;;;;5052155;28;20055;-37
2021/03/18 10:47:48;;;;;;;1.08;0.93;;;10.70;74.10;;;;;;5037764;28;20040;-37
2021/03/18 10:50:16;;;;;;;2.17;0.90;;;10.70;74.10;;;;;;5056834;28;20382;-37
2021/03/18 10:53:00;;;;;;;2.10;1.10;;;10.70;74.10;;;;;;5072078;28;20086;-41
2021/03/18 10:55:29;;;;;;;1.50;0.90;;;10.70;74.10;;;;;;5072921;28;20105;-38
2021/03/18 10:58:00;;;;;;;1.25;0.88;;;10.70;74.10;;;;;;5064198;28;20067;-37
2021/03/18 11:00:27;;;;;;;0.82;0.80;;;10.70;74.00;;;;;;5065841;28;20056;-39
2021/03/18 11:03:07;;;;;;;1.63;0.98;;;10.70;74.00;;;;;;5052619;28;20519;-38
2021/03/18 11:05:37;;;;;;;1.92;1.00;;;10.70;74.00;;;;;;5055316;28;20056;-36
2021/03/18 11:08:03;;;;;;;1.08;0.90;;;10.70;74.00;;;;;;5061026;28;20131;-37
2021/03/18 11:10:40;;;;;;;2.75;0.90;;;10.70;74.00;;;;;;5071701;28;20051;-39
2021/03/18 11:13:09;;;;;;;1.50;0.98;;;10.70;74.10;;;;;;5052498;28;20094;-35
2021/03/18 11:15:52;;;;;;;1.10;0.68;;;10.70;74.00;;;;;;5051654;28;20056;-44
2021/03/18 11:18:25;;;;;;;2.10;1.00;;;10.70;74.00;;;;;;5063177;28;20045;-38
2021/03/18 11:20:51;;;;;;;1.83;1.10;;;10.70;74.70;;;;;;5046419;28;20094;-46
2021/03/18 11:23:25;;;;;;;1.98;0.80;;;10.70;74.00;;;;;;5053099;28;20049;-49
2021/03/18 11:25:56;;;;;;;2.42;1.20;;;10.80;74.70;;;;;;5052310;28;20041;-54
2021/03/18 11:28:21;;;;;;;1.90;0.85;;;10.70;74.00;;;;;;5052158;28;20045;-38
2021/03/18 11:30:47;;;;;;;1.25;1.10;;;10.70;74.00;;;;;;5052785;28;20143;-49
2021/03/18 11:33:23;;;;;;;2.65;1.27;;;10.70;74.00;;;;;;5049664;28;20045;-51
2021/03/18 11:35:52;;;;;;;1.40;0.90;;;10.80;74.00;;;;;;5051385;28;20056;-46
2021/03/18 11:38:19;;;;;;;1.08;0.68;;;10.70;74.00;;;;;;5050885;28;20041;-38
2021/03/18 11:40:46;;;;;;;2.22;1.15;;;10.80;74.00;;;;;;5051364;28;20049;-48
2021/03/18 11:43:13;;;;;;;1.92;0.93;;;10.80;74.00;;;;;;5050766;28;20052;-45
2021/03/18 11:45:40;;;;;;;2.10;1.00;;;10.80;74.00;;;;;;5051954;28;20056;-50
2021/03/18 11:48:07;;;;;;;1.02;0.85;;;10.70;74.00;;;;;;5033424;28;20131;-37
2021/03/18 11:50:34;;;;;;;2.22;1.33;;;10.80;74.00;;;;;;5033849;28;20065;-47
2021/03/18 11:53:01;;;;;;;3.72;1.42;;;10.80;74.00;;;;;;5051531;28;20077;-44
2021/03/18 11:55:26;;;;;;;1.52;0.88;;;10.70;74.00;;;;;;5051636;28;20045;-47
2021/03/18 11:57:59;;;;;;;1.63;0.82;;;10.70;73.90;;;;;;5050974;28;20102;-46
2021/03/18 12:00:31;;;;;;;3.08;1.30;;;10.80;74.00;;;;;;5051351;28;20070;-57
2021/03/18 12:02:58;;;;;;;2.00;1.20;;;10.80;74.00;;;;;;5051400;28;20417;-56
2021/03/18 12:05:24;;;;;;;1.92;0.80;;;10.80;74.00;;;;;;5050882;28;20068;-43
2021/03/18 12:07:51;;;;;;;1.27;0.73;;;10.80;74.00;;;;;;5063075;28;20492;-53
2021/03/18 12:10:18;;;;;;;4.10;1.30;;;10.80;74.00;;;;;;5055507;28;20049;-51
2021/03/18 12:12:44;;;;;;;2.17;1.00;;;10.80;74.00;;;;;;5053179;28;20059;-43
2021/03/18 12:15:12;;;;;;;1.88;1.02;;;10.80;74.00;;;;;;5071176;28;20548;-43
2021/03/18 12:17:39;;;;;;;1.33;1.00;;;10.80;74.00;;;;;;5071305;28;20060;-39
2021/03/18 12:20:15;;;;;;;1.23;1.08;;;10.80;74.00;;;;;;5070972;28;20516;-46
2021/03/18 12:22:42;;;;;;;0.52;0.50;;;10.80;74.00;;;;;;5071811;28;20052;-50
2021/03/18 12:25:09;;;;;;;2.17;1.10;;;10.80;74.00;;;;;;5066732;28;20048;-51
2021/03/18 12:27:34;;;;;;;2.17;1.20;;;10.80;73.90;;;;;;5050876;28;20144;-50
2021/03/18 12:30:00;;;;;;;0.57;0.57;;;10.80;74.00;;;;;;5051383;28;20552;-49
2021/03/18 12:32:26;;;;;;;2.10;0.90;;;10.80;74.00;;;;;;5050971;28;20520;-40
2021/03/18 12:34:52;;;;;;;2.55;0.90;;;10.80;73.90;;;;;;5050874;28;20053;-38
2021/03/18 12:37:18;;;;;;;2.53;1.10;;;10.80;74.00;;;;;;5050921;28;20048;-43
2021/03/18 12:39:45;;;;;;;2.80;1.10;;;10.80;73.90;;;;;;5050985;28;20049;-46
2021/03/18 12:42:12;;;;;;;1.15;0.57;;;10.80;74.00;;;;;;5051644;28;20402;-58
2021/03/18 12:44:39;;;;;;;3.05;1.15;;;10.80;73.90;;;;;;5051948;28;20099;-47
2021/03/18 12:47:06;;;;;;;3.10;1.35;;;10.80;73.90;;;;;;5051887;28;20053;-41
2021/03/18 12:49:32;;;;;;;2.80;1.00;;;10.80;73.90;;;;;;5033051;28;20059;-41
2021/03/18 12:51:58;;;;;;;2.33;1.10;;;10.80;73.90;;;;;;5052944;28;20102;-45
2021/03/18 12:54:24;;;;;;;2.42;1.02;;;10.80;73.90;;;;;;5055518;28;20099;-42
2021/03/18 12:56:50;;;;;;;1.27;0.60;;;10.80;73.90;;;;;;5054736;28;20048;-37
2021/03/18 12:59:15;;;;;;;0.82;0.75;;;10.80;73.90;;;;;;5055603;28;20063;-52
2021/03/18 13:01:41;;;;;;;2.13;0.95;;;10.80;74.60;;;;;;5060086;28;20083;-42
2021/03/18 13:04:08;;;;;;;2.10;0.90;;;10.90;73.90;;;;;;5074728;28;20066;-49